sensor_id;sensor_type;location;lat;lon;timestamp;temperature;humidity
30889;DHT22;51092;50.874;7.024;2023-03-31T00:00:34;12.00;99.90
30889;DHT22;51092;50.874;7.024;2023-03-31T00:01:38;12.00;99.90
30889;DHT22;51092;50.874;7.024;2023-03-31T00:02:42;11.90;99.90
30889;DHT22;51092;50.874;7.024;2023-03-31T00:03:44;11.90;99.90
30889;DHT22;51092;50.874;7.024;2023-03-31T00:04:47;11.90;99.90
30889;DHT22;51092;50.874;7.024;2023-03-31T00:05:56;11.80;99.90
30889;DHT22;51092;50.874;7.024;2023-03-31T00:06:59;11.80;99.90
30889;DHT22;51092;50.874;7.024;2023-03-31T00:08:01;11.80;99.90
30889;DHT22;51092;50.874;7.024;2023-03-31T00:09:04;11.80;99.90
30889;DHT22;51092;50.874;7.024;2023-03-31T00:10:08;11.70;99.90
30889;DHT22;51092;50.874;7.024;2023-03-31T00:11:11;11.80;99.90
30889;DHT22;51092;50.874;7.024;2023-03-31T00:12:14;11.70;99.90
30889;DHT22;51092;50.874;7.024;2023-03-31T00:13:16;11.80;99.90
30889;DHT22;51092;50.874;7.024;2023-03-31T00:14:19;11.70;99.90
30889;DHT22;51092;50.874;7.024;2023-03-31T00:15:21;11.70;99.90
30889;DHT22;51092;50.874;7.024;2023-03-31T00:16:24;11.70;99.90
30889;DHT22;51092;50.874;7.024;2023-03-31T00:17:27;11.70;99.90
30889;DHT22;51092;50.874;7.024;2023-03-31T00:18:33;11.80;99.90
30889;DHT22;51092;50.874;7.024;2023-03-31T00:19:34;11.90;99.90
30889;DHT22;51092;50.874;7.024;2023-03-31T00:20:37;11.90;99.30
30889;DHT22;51092;50.874;7.024;2023-03-31T00:21:38;12.00;98.30
30889;DHT22;51092;50.874;7.024;2023-03-31T00:22:43;12.00;97.20
30889;DHT22;51092;50.874;7.024;2023-03-31T00:23:46;12.00;97.30
30889;DHT22;51092;50.874;7.024;2023-03-31T00:24:49;12.10;97.80
30889;DHT22;51092;50.874;7.024;2023-03-31T00:25:50;12.10;97.30
30889;DHT22;51092;50.874;7.024;2023-03-31T00:26:53;12.10;97.50
30889;DHT22;51092;50.874;7.024;2023-03-31T00:27:55;12.10;97.40
30889;DHT22;51092;50.874;7.024;2023-03-31T00:28:58;12.10;97.40
30889;DHT22;51092;50.874;7.024;2023-03-31T00:30:01;12.10;96.30
30889;DHT22;51092;50.874;7.024;2023-03-31T00:31:03;12.10;96.20
30889;DHT22;51092;50.874;7.024;2023-03-31T00:32:05;12.10;96.90
30889;DHT22;51092;50.874;7.024;2023-03-31T00:33:09;12.10;96.30
30889;DHT22;51092;50.874;7.024;2023-03-31T00:34:11;12.10;96.30
30889;DHT22;51092;50.874;7.024;2023-03-31T00:35:13;12.10;96.50
30889;DHT22;51092;50.874;7.024;2023-03-31T00:36:15;12.10;96.80
30889;DHT22;51092;50.874;7.024;2023-03-31T00:37:21;12.00;97.10
30889;DHT22;51092;50.874;7.024;2023-03-31T00:38:22;12.00;97.10
30889;DHT22;51092;50.874;7.024;2023-03-31T00:39:25;12.10;96.90
30889;DHT22;51092;50.874;7.024;2023-03-31T00:40:29;12.10;96.50
30889;DHT22;51092;50.874;7.024;2023-03-31T00:41:32;12.10;96.60
30889;DHT22;51092;50.874;7.024;2023-03-31T00:42:37;12.10;96.70
30889;DHT22;51092;50.874;7.024;2023-03-31T00:43:40;12.10;97.40
30889;DHT22;51092;50.874;7.024;2023-03-31T00:46:27;12.10;97.00
30889;DHT22;51092;50.874;7.024;2023-03-31T00:47:30;12.10;96.70
30889;DHT22;51092;50.874;7.024;2023-03-31T00:48:33;12.10;96.80
30889;DHT22;51092;50.874;7.024;2023-03-31T00:49:38;12.10;96.40
30889;DHT22;51092;50.874;7.024;2023-03-31T00:50:47;12.10;96.50
30889;DHT22;51092;50.874;7.024;2023-03-31T00:51:53;12.00;96.80
30889;DHT22;51092;50.874;7.024;2023-03-31T00:52:57;12.00;97.00
30889;DHT22;51092;50.874;7.024;2023-03-31T00:54:04;12.00;96.80
30889;DHT22;51092;50.874;7.024;2023-03-31T00:55:10;12.00;96.50
30889;DHT22;51092;50.874;7.024;2023-03-31T00:56:21;12.00;97.00
30889;DHT22;51092;50.874;7.024;2023-03-31T00:57:24;12.00;96.50
30889;DHT22;51092;50.874;7.024;2023-03-31T00:58:28;12.00;96.80
30889;DHT22;51092;50.874;7.024;2023-03-31T00:59:36;12.00;96.60
30889;DHT22;51092;50.874;7.024;2023-03-31T01:00:38;12.00;96.50
30889;DHT22;51092;50.874;7.024;2023-03-31T01:01:44;12.00;96.70
30889;DHT22;51092;50.874;7.024;2023-03-31T01:02:49;12.00;96.90
30889;DHT22;51092;50.874;7.024;2023-03-31T01:03:57;12.00;96.60
30889;DHT22;51092;50.874;7.024;2023-03-31T01:04:59;12.00;96.60
30889;DHT22;51092;50.874;7.024;2023-03-31T01:06:04;12.00;96.60
30889;DHT22;51092;50.874;7.024;2023-03-31T01:07:15;12.00;97.00
30889;DHT22;51092;50.874;7.024;2023-03-31T01:08:21;12.00;96.70
30889;DHT22;51092;50.874;7.024;2023-03-31T01:09:28;12.10;96.50
30889;DHT22;51092;50.874;7.024;2023-03-31T01:10:38;12.10;96.20
30889;DHT22;51092;50.874;7.024;2023-03-31T01:11:42;12.00;96.10
30889;DHT22;51092;50.874;7.024;2023-03-31T01:12:48;12.10;96.10
30889;DHT22;51092;50.874;7.024;2023-03-31T01:13:52;12.10;95.90
30889;DHT22;51092;50.874;7.024;2023-03-31T01:14:56;12.00;96.10
30889;DHT22;51092;50.874;7.024;2023-03-31T01:15:57;12.10;96.20
30889;DHT22;51092;50.874;7.024;2023-03-31T01:17:00;12.00;95.70
30889;DHT22;51092;50.874;7.024;2023-03-31T01:18:03;12.00;96.00
30889;DHT22;51092;50.874;7.024;2023-03-31T01:19:12;12.00;95.60
30889;DHT22;51092;50.874;7.024;2023-03-31T01:20:24;12.00;95.80
30889;DHT22;51092;50.874;7.024;2023-03-31T01:21:54;12.00;95.80
30889;DHT22;51092;50.874;7.024;2023-03-31T01:23:28;12.00;96.40
30889;DHT22;51092;50.874;7.024;2023-03-31T01:25:04;11.90;96.40
30889;DHT22;51092;50.874;7.024;2023-03-31T01:26:33;11.90;96.90
30889;DHT22;51092;50.874;7.024;2023-03-31T01:27:55;11.90;97.10
30889;DHT22;51092;50.874;7.024;2023-03-31T01:29:03;11.90;97.10
30889;DHT22;51092;50.874;7.024;2023-03-31T01:30:23;11.80;97.00
30889;DHT22;51092;50.874;7.024;2023-03-31T01:33:19;11.80;98.50
30889;DHT22;51092;50.874;7.024;2023-03-31T01:34:49;11.80;97.90
30889;DHT22;51092;50.874;7.024;2023-03-31T01:37:53;11.70;99.40
30889;DHT22;51092;50.874;7.024;2023-03-31T01:39:38;11.70;99.40
30889;DHT22;51092;50.874;7.024;2023-03-31T01:41:04;11.80;98.60
30889;DHT22;51092;50.874;7.024;2023-03-31T01:42:12;11.80;98.70
30889;DHT22;51092;50.874;7.024;2023-03-31T01:43:21;11.90;98.50
30889;DHT22;51092;50.874;7.024;2023-03-31T01:44:32;11.80;98.00
30889;DHT22;51092;50.874;7.024;2023-03-31T01:45:43;11.80;98.20
30889;DHT22;51092;50.874;7.024;2023-03-31T01:46:53;11.80;98.30
30889;DHT22;51092;50.874;7.024;2023-03-31T01:48:00;11.80;98.30
30889;DHT22;51092;50.874;7.024;2023-03-31T01:49:09;11.80;98.20
30889;DHT22;51092;50.874;7.024;2023-03-31T01:50:22;11.80;98.60
30889;DHT22;51092;50.874;7.024;2023-03-31T01:51:31;11.80;98.80
30889;DHT22;51092;50.874;7.024;2023-03-31T01:52:39;11.70;99.90
30889;DHT22;51092;50.874;7.024;2023-03-31T01:53:48;11.70;99.90
30889;DHT22;51092;50.874;7.024;2023-03-31T01:54:56;11.70;99.90
30889;DHT22;51092;50.874;7.024;2023-03-31T01:56:03;11.70;99.90
30889;DHT22;51092;50.874;7.024;2023-03-31T01:57:12;11.70;99.90
30889;DHT22;51092;50.874;7.024;2023-03-31T01:58:20;11.70;99.90
30889;DHT22;51092;50.874;7.024;2023-03-31T01:59:27;11.80;99.90
30889;DHT22;51092;50.874;7.024;2023-03-31T02:00:32;11.70;99.90
30889;DHT22;51092;50.874;7.024;2023-03-31T02:01:39;11.70;99.90
30889;DHT22;51092;50.874;7.024;2023-03-31T02:02:46;11.70;99.90
30889;DHT22;51092;50.874;7.024;2023-03-31T02:03:52;11.70;99.90
30889;DHT22;51092;50.874;7.024;2023-03-31T02:04:57;11.60;99.90
30889;DHT22;51092;50.874;7.024;2023-03-31T02:06:06;11.70;99.90
30889;DHT22;51092;50.874;7.024;2023-03-31T02:07:13;11.70;99.90
30889;DHT22;51092;50.874;7.024;2023-03-31T02:08:20;11.70;99.90
30889;DHT22;51092;50.874;7.024;2023-03-31T02:09:30;11.70;99.90
30889;DHT22;51092;50.874;7.024;2023-03-31T02:10:35;11.70;99.90
30889;DHT22;51092;50.874;7.024;2023-03-31T02:11:38;11.60;99.90
30889;DHT22;51092;50.874;7.024;2023-03-31T02:12:42;11.70;99.90
30889;DHT22;51092;50.874;7.024;2023-03-31T02:13:46;11.70;99.90
30889;DHT22;51092;50.874;7.024;2023-03-31T02:14:51;11.70;99.90
30889;DHT22;51092;50.874;7.024;2023-03-31T02:15:57;11.70;99.90
30889;DHT22;51092;50.874;7.024;2023-03-31T02:17:02;11.60;99.90
30889;DHT22;51092;50.874;7.024;2023-03-31T02:18:06;11.60;99.90
30889;DHT22;51092;50.874;7.024;2023-03-31T02:19:11;11.60;99.90
30889;DHT22;51092;50.874;7.024;2023-03-31T02:20:20;11.60;99.90
30889;DHT22;51092;50.874;7.024;2023-03-31T02:21:22;11.60;99.90
30889;DHT22;51092;50.874;7.024;2023-03-31T02:22:28;11.60;99.90
30889;DHT22;51092;50.874;7.024;2023-03-31T02:23:32;11.60;99.90
30889;DHT22;51092;50.874;7.024;2023-03-31T02:24:36;11.60;99.90
30889;DHT22;51092;50.874;7.024;2023-03-31T02:25:44;11.60;99.90
30889;DHT22;51092;50.874;7.024;2023-03-31T02:26:52;11.60;99.90
30889;DHT22;51092;50.874;7.024;2023-03-31T02:27:56;11.50;99.90
30889;DHT22;51092;50.874;7.024;2023-03-31T02:29:00;11.50;99.90
30889;DHT22;51092;50.874;7.024;2023-03-31T02:30:03;11.50;99.90
30889;DHT22;51092;50.874;7.024;2023-03-31T02:31:16;11.50;99.90
30889;DHT22;51092;50.874;7.024;2023-03-31T02:32:23;11.50;99.90
30889;DHT22;51092;50.874;7.024;2023-03-31T02:33:26;11.60;99.90
30889;DHT22;51092;50.874;7.024;2023-03-31T02:34:28;11.60;99.90
30889;DHT22;51092;50.874;7.024;2023-03-31T02:35:32;11.60;99.90
30889;DHT22;51092;50.874;7.024;2023-03-31T02:36:35;11.60;99.90
30889;DHT22;51092;50.874;7.024;2023-03-31T02:37:38;11.60;99.90
30889;DHT22;51092;50.874;7.024;2023-03-31T02:38:43;11.60;99.90
30889;DHT22;51092;50.874;7.024;2023-03-31T02:39:48;11.70;99.90
30889;DHT22;51092;50.874;7.024;2023-03-31T02:40:53;11.70;99.90
30889;DHT22;51092;50.874;7.024;2023-03-31T02:41:54;11.70;99.90
30889;DHT22;51092;50.874;7.024;2023-03-31T02:42:57;11.70;99.90
30889;DHT22;51092;50.874;7.024;2023-03-31T02:44:00;11.70;99.90
30889;DHT22;51092;50.874;7.024;2023-03-31T02:45:04;11.80;99.90
30889;DHT22;51092;50.874;7.024;2023-03-31T02:46:06;11.80;99.90
30889;DHT22;51092;50.874;7.024;2023-03-31T02:47:11;11.80;99.90
30889;DHT22;51092;50.874;7.024;2023-03-31T02:48:17;11.80;99.90
30889;DHT22;51092;50.874;7.024;2023-03-31T02:49:21;11.80;99.90
30889;DHT22;51092;50.874;7.024;2023-03-31T02:50:29;11.70;99.90
30889;DHT22;51092;50.874;7.024;2023-03-31T02:53:13;11.70;99.90
30889;DHT22;51092;50.874;7.024;2023-03-31T02:56:09;11.60;99.90
30889;DHT22;51092;50.874;7.024;2023-03-31T02:59:18;11.70;99.90
30889;DHT22;51092;50.874;7.024;2023-03-31T03:00:33;11.80;99.90
30889;DHT22;51092;50.874;7.024;2023-03-31T03:03:26;11.90;99.90
30889;DHT22;51092;50.874;7.024;2023-03-31T03:04:40;11.80;99.90
30889;DHT22;51092;50.874;7.024;2023-03-31T03:05:54;11.90;99.90
30889;DHT22;51092;50.874;7.024;2023-03-31T03:07:03;11.90;99.90
30889;DHT22;51092;50.874;7.024;2023-03-31T03:08:14;11.90;99.90
30889;DHT22;51092;50.874;7.024;2023-03-31T03:09:27;11.90;99.90
30889;DHT22;51092;50.874;7.024;2023-03-31T03:10:42;11.90;99.90
30889;DHT22;51092;50.874;7.024;2023-03-31T03:11:51;11.90;99.90
30889;DHT22;51092;50.874;7.024;2023-03-31T03:13:05;11.80;99.90
30889;DHT22;51092;50.874;7.024;2023-03-31T03:14:11;11.80;99.90
30889;DHT22;51092;50.874;7.024;2023-03-31T03:15:18;11.80;99.90
30889;DHT22;51092;50.874;7.024;2023-03-31T03:16:23;11.80;99.90
30889;DHT22;51092;50.874;7.024;2023-03-31T03:17:31;11.80;99.90
30889;DHT22;51092;50.874;7.024;2023-03-31T03:18:33;11.70;99.90
30889;DHT22;51092;50.874;7.024;2023-03-31T03:19:36;11.70;99.90
30889;DHT22;51092;50.874;7.024;2023-03-31T03:20:37;11.60;99.90
30889;DHT22;51092;50.874;7.024;2023-03-31T03:21:41;11.70;99.90
30889;DHT22;51092;50.874;7.024;2023-03-31T03:22:42;11.70;99.90
30889;DHT22;51092;50.874;7.024;2023-03-31T03:23:45;11.70;99.90
30889;DHT22;51092;50.874;7.024;2023-03-31T03:24:47;11.60;99.90
30889;DHT22;51092;50.874;7.024;2023-03-31T03:25:49;11.60;99.90
30889;DHT22;51092;50.874;7.024;2023-03-31T03:26:53;11.60;99.90
30889;DHT22;51092;50.874;7.024;2023-03-31T03:27:55;11.60;99.90
30889;DHT22;51092;50.874;7.024;2023-03-31T03:28:57;11.60;99.90
30889;DHT22;51092;50.874;7.024;2023-03-31T03:29:59;11.50;99.90
30889;DHT22;51092;50.874;7.024;2023-03-31T03:31:02;11.50;99.90
30889;DHT22;51092;50.874;7.024;2023-03-31T03:32:04;11.60;99.90
30889;DHT22;51092;50.874;7.024;2023-03-31T03:33:07;11.60;99.90
30889;DHT22;51092;50.874;7.024;2023-03-31T03:34:08;11.60;99.90
30889;DHT22;51092;50.874;7.024;2023-03-31T03:35:11;11.60;99.90
30889;DHT22;51092;50.874;7.024;2023-03-31T03:36:12;11.60;99.90
30889;DHT22;51092;50.874;7.024;2023-03-31T03:37:15;11.60;99.90
30889;DHT22;51092;50.874;7.024;2023-03-31T03:38:16;11.60;99.90
30889;DHT22;51092;50.874;7.024;2023-03-31T03:39:19;11.60;99.90
30889;DHT22;51092;50.874;7.024;2023-03-31T03:40:21;11.60;99.90
30889;DHT22;51092;50.874;7.024;2023-03-31T03:41:23;11.70;99.90
30889;DHT22;51092;50.874;7.024;2023-03-31T03:42:26;11.60;99.90
30889;DHT22;51092;50.874;7.024;2023-03-31T03:43:29;11.60;99.90
30889;DHT22;51092;50.874;7.024;2023-03-31T03:44:30;11.60;99.90
30889;DHT22;51092;50.874;7.024;2023-03-31T03:45:33;11.50;99.90
30889;DHT22;51092;50.874;7.024;2023-03-31T03:46:34;11.50;99.90
30889;DHT22;51092;50.874;7.024;2023-03-31T03:47:37;11.50;99.90
30889;DHT22;51092;50.874;7.024;2023-03-31T03:48:38;11.50;99.90
30889;DHT22;51092;50.874;7.024;2023-03-31T03:49:41;11.50;99.90
30889;DHT22;51092;50.874;7.024;2023-03-31T03:50:44;11.50;99.90
30889;DHT22;51092;50.874;7.024;2023-03-31T03:51:46;11.50;99.90
30889;DHT22;51092;50.874;7.024;2023-03-31T03:52:48;11.50;99.90
30889;DHT22;51092;50.874;7.024;2023-03-31T03:53:50;11.50;99.90
30889;DHT22;51092;50.874;7.024;2023-03-31T03:54:52;11.50;99.90
30889;DHT22;51092;50.874;7.024;2023-03-31T03:55:54;11.60;99.90
30889;DHT22;51092;50.874;7.024;2023-03-31T03:56:56;11.60;99.90
30889;DHT22;51092;50.874;7.024;2023-03-31T03:57:59;11.60;99.90
30889;DHT22;51092;50.874;7.024;2023-03-31T03:59:01;11.60;99.90
30889;DHT22;51092;50.874;7.024;2023-03-31T04:00:05;11.60;99.90
30889;DHT22;51092;50.874;7.024;2023-03-31T04:01:10;11.50;99.90
30889;DHT22;51092;50.874;7.024;2023-03-31T04:02:11;11.50;99.90
30889;DHT22;51092;50.874;7.024;2023-03-31T04:03:14;11.60;99.90
30889;DHT22;51092;50.874;7.024;2023-03-31T04:04:16;11.50;99.90
30889;DHT22;51092;50.874;7.024;2023-03-31T04:05:19;11.50;99.90
30889;DHT22;51092;50.874;7.024;2023-03-31T04:06:21;11.50;99.90
30889;DHT22;51092;50.874;7.024;2023-03-31T04:07:23;11.60;99.90
30889;DHT22;51092;50.874;7.024;2023-03-31T04:08:25;11.60;99.90
30889;DHT22;51092;50.874;7.024;2023-03-31T04:09:28;11.60;99.90
30889;DHT22;51092;50.874;7.024;2023-03-31T04:10:30;11.50;99.90
30889;DHT22;51092;50.874;7.024;2023-03-31T04:11:33;11.50;99.90
30889;DHT22;51092;50.874;7.024;2023-03-31T04:12:34;11.50;99.90
30889;DHT22;51092;50.874;7.024;2023-03-31T04:13:38;11.50;99.90
30889;DHT22;51092;50.874;7.024;2023-03-31T04:14:40;11.50;99.90
30889;DHT22;51092;50.874;7.024;2023-03-31T04:15:42;11.50;99.90
30889;DHT22;51092;50.874;7.024;2023-03-31T04:16:44;11.50;99.90
30889;DHT22;51092;50.874;7.024;2023-03-31T04:17:48;11.60;99.90
30889;DHT22;51092;50.874;7.024;2023-03-31T04:18:54;11.50;99.90
30889;DHT22;51092;50.874;7.024;2023-03-31T04:20:00;11.50;99.90
30889;DHT22;51092;50.874;7.024;2023-03-31T04:21:02;11.50;99.90
30889;DHT22;51092;50.874;7.024;2023-03-31T04:22:05;11.50;99.90
30889;DHT22;51092;50.874;7.024;2023-03-31T04:23:11;11.50;99.90
30889;DHT22;51092;50.874;7.024;2023-03-31T04:24:15;11.40;99.90
30889;DHT22;51092;50.874;7.024;2023-03-31T04:25:21;11.40;99.90
30889;DHT22;51092;50.874;7.024;2023-03-31T04:26:25;11.40;99.90
30889;DHT22;51092;50.874;7.024;2023-03-31T04:27:31;11.40;99.90
30889;DHT22;51092;50.874;7.024;2023-03-31T04:28:35;11.50;99.90
30889;DHT22;51092;50.874;7.024;2023-03-31T04:29:38;11.50;99.90
30889;DHT22;51092;50.874;7.024;2023-03-31T04:30:40;11.50;99.90
30889;DHT22;51092;50.874;7.024;2023-03-31T04:31:42;11.40;99.90
30889;DHT22;51092;50.874;7.024;2023-03-31T04:32:45;11.30;99.90
30889;DHT22;51092;50.874;7.024;2023-03-31T04:33:46;11.40;99.90
30889;DHT22;51092;50.874;7.024;2023-03-31T04:34:50;11.40;99.90
30889;DHT22;51092;50.874;7.024;2023-03-31T04:35:52;11.40;99.90
30889;DHT22;51092;50.874;7.024;2023-03-31T04:36:54;11.30;99.90
30889;DHT22;51092;50.874;7.024;2023-03-31T04:37:56;11.30;99.90
30889;DHT22;51092;50.874;7.024;2023-03-31T04:39:00;11.30;99.90
30889;DHT22;51092;50.874;7.024;2023-03-31T04:40:01;11.30;99.90
30889;DHT22;51092;50.874;7.024;2023-03-31T04:41:10;11.30;99.90
30889;DHT22;51092;50.874;7.024;2023-03-31T04:42:12;11.30;99.90
30889;DHT22;51092;50.874;7.024;2023-03-31T04:43:15;11.30;99.90
30889;DHT22;51092;50.874;7.024;2023-03-31T04:44:17;11.30;99.90
30889;DHT22;51092;50.874;7.024;2023-03-31T04:45:21;11.30;99.90
30889;DHT22;51092;50.874;7.024;2023-03-31T04:46:22;11.40;99.90
30889;DHT22;51092;50.874;7.024;2023-03-31T04:47:26;11.40;99.90
30889;DHT22;51092;50.874;7.024;2023-03-31T04:48:27;11.40;99.90
30889;DHT22;51092;50.874;7.024;2023-03-31T04:49:30;11.50;99.90
30889;DHT22;51092;50.874;7.024;2023-03-31T04:50:33;11.50;99.90
30889;DHT22;51092;50.874;7.024;2023-03-31T04:51:35;11.50;99.70
30889;DHT22;51092;50.874;7.024;2023-03-31T04:52:37;11.50;99.20
30889;DHT22;51092;50.874;7.024;2023-03-31T04:53:40;11.50;98.70
30889;DHT22;51092;50.874;7.024;2023-03-31T04:54:42;11.50;98.70
30889;DHT22;51092;50.874;7.024;2023-03-31T04:55:44;11.50;98.40
30889;DHT22;51092;50.874;7.024;2023-03-31T04:56:46;11.50;97.90
30889;DHT22;51092;50.874;7.024;2023-03-31T04:57:48;11.50;97.40
30889;DHT22;51092;50.874;7.024;2023-03-31T04:58:51;11.50;97.30
30889;DHT22;51092;50.874;7.024;2023-03-31T04:59:54;11.40;97.80
30889;DHT22;51092;50.874;7.024;2023-03-31T05:00:56;11.40;98.40
30889;DHT22;51092;50.874;7.024;2023-03-31T05:01:59;11.40;99.00
30889;DHT22;51092;50.874;7.024;2023-03-31T05:03:00;11.40;98.10
30889;DHT22;51092;50.874;7.024;2023-03-31T05:04:03;11.40;98.40
30889;DHT22;51092;50.874;7.024;2023-03-31T05:05:05;11.40;97.30
30889;DHT22;51092;50.874;7.024;2023-03-31T05:06:08;11.40;97.30
30889;DHT22;51092;50.874;7.024;2023-03-31T05:07:10;11.40;97.10
30889;DHT22;51092;50.874;7.024;2023-03-31T05:08:12;11.30;97.20
30889;DHT22;51092;50.874;7.024;2023-03-31T05:09:14;11.30;97.20
30889;DHT22;51092;50.874;7.024;2023-03-31T05:10:16;11.30;97.40
30889;DHT22;51092;50.874;7.024;2023-03-31T05:11:18;11.40;97.10
30889;DHT22;51092;50.874;7.024;2023-03-31T05:12:21;11.40;97.10
30889;DHT22;51092;50.874;7.024;2023-03-31T05:13:22;11.30;97.00
30889;DHT22;51092;50.874;7.024;2023-03-31T05:14:25;11.30;97.20
30889;DHT22;51092;50.874;7.024;2023-03-31T05:15:27;11.20;97.70
30889;DHT22;51092;50.874;7.024;2023-03-31T05:16:30;11.30;97.70
30889;DHT22;51092;50.874;7.024;2023-03-31T05:17:32;11.20;98.00
30889;DHT22;51092;50.874;7.024;2023-03-31T05:18:36;11.20;98.10
30889;DHT22;51092;50.874;7.024;2023-03-31T05:19:36;11.20;97.30
30889;DHT22;51092;50.874;7.024;2023-03-31T05:20:38;11.20;97.60
30889;DHT22;51092;50.874;7.024;2023-03-31T05:21:40;11.30;96.20
30889;DHT22;51092;50.874;7.024;2023-03-31T05:22:42;11.30;96.20
30889;DHT22;51092;50.874;7.024;2023-03-31T05:23:44;11.30;96.40
30889;DHT22;51092;50.874;7.024;2023-03-31T05:24:47;11.30;95.80
30889;DHT22;51092;50.874;7.024;2023-03-31T05:25:48;11.30;95.60
30889;DHT22;51092;50.874;7.024;2023-03-31T05:26:51;11.30;96.00
30889;DHT22;51092;50.874;7.024;2023-03-31T05:27:52;11.40;95.40
30889;DHT22;51092;50.874;7.024;2023-03-31T05:28:56;11.30;95.50
30889;DHT22;51092;50.874;7.024;2023-03-31T05:29:58;11.40;95.40
30889;DHT22;51092;50.874;7.024;2023-03-31T05:31:01;11.30;95.60
30889;DHT22;51092;50.874;7.024;2023-03-31T05:32:05;11.30;95.60
30889;DHT22;51092;50.874;7.024;2023-03-31T05:33:07;11.30;95.70
30889;DHT22;51092;50.874;7.024;2023-03-31T05:34:08;11.30;95.80
30889;DHT22;51092;50.874;7.024;2023-03-31T05:35:11;11.30;96.50
30889;DHT22;51092;50.874;7.024;2023-03-31T05:36:14;11.30;96.20
30889;DHT22;51092;50.874;7.024;2023-03-31T05:37:19;11.30;96.20
30889;DHT22;51092;50.874;7.024;2023-03-31T05:38:21;11.30;96.00
30889;DHT22;51092;50.874;7.024;2023-03-31T05:39:23;11.30;95.60
30889;DHT22;51092;50.874;7.024;2023-03-31T05:40:25;11.40;95.80
30889;DHT22;51092;50.874;7.024;2023-03-31T05:41:27;11.30;95.50
30889;DHT22;51092;50.874;7.024;2023-03-31T05:42:29;11.30;95.70
30889;DHT22;51092;50.874;7.024;2023-03-31T05:43:31;11.30;95.60
30889;DHT22;51092;50.874;7.024;2023-03-31T05:44:33;11.30;95.50
30889;DHT22;51092;50.874;7.024;2023-03-31T05:45:35;11.30;95.00
30889;DHT22;51092;50.874;7.024;2023-03-31T05:46:37;11.30;95.80
30889;DHT22;51092;50.874;7.024;2023-03-31T05:47:41;11.30;95.30
30889;DHT22;51092;50.874;7.024;2023-03-31T05:48:43;11.30;95.20
30889;DHT22;51092;50.874;7.024;2023-03-31T05:49:46;11.40;95.10
30889;DHT22;51092;50.874;7.024;2023-03-31T05:50:47;11.40;94.50
30889;DHT22;51092;50.874;7.024;2023-03-31T05:51:50;11.40;94.10
30889;DHT22;51092;50.874;7.024;2023-03-31T05:52:51;11.40;94.30
30889;DHT22;51092;50.874;7.024;2023-03-31T05:53:54;11.50;94.20
30889;DHT22;51092;50.874;7.024;2023-03-31T05:54:56;11.40;93.20
30889;DHT22;51092;50.874;7.024;2023-03-31T05:55:59;11.40;93.30
30889;DHT22;51092;50.874;7.024;2023-03-31T05:57:02;11.40;93.50
30889;DHT22;51092;50.874;7.024;2023-03-31T05:58:04;11.40;93.60
30889;DHT22;51092;50.874;7.024;2023-03-31T05:59:08;11.50;93.00
30889;DHT22;51092;50.874;7.024;2023-03-31T06:00:11;11.50;92.90
30889;DHT22;51092;50.874;7.024;2023-03-31T06:01:15;11.60;92.20
30889;DHT22;51092;50.874;7.024;2023-03-31T06:02:21;11.50;91.60
30889;DHT22;51092;50.874;7.024;2023-03-31T06:03:24;11.60;91.10
30889;DHT22;51092;50.874;7.024;2023-03-31T06:04:26;11.70;90.60
30889;DHT22;51092;50.874;7.024;2023-03-31T06:05:29;11.70;90.60
30889;DHT22;51092;50.874;7.024;2023-03-31T06:06:31;11.60;90.70
30889;DHT22;51092;50.874;7.024;2023-03-31T06:07:34;11.70;90.30
30889;DHT22;51092;50.874;7.024;2023-03-31T06:08:37;11.80;90.50
30889;DHT22;51092;50.874;7.024;2023-03-31T06:09:39;11.70;90.10
30889;DHT22;51092;50.874;7.024;2023-03-31T06:10:42;11.70;90.20
30889;DHT22;51092;50.874;7.024;2023-03-31T06:11:44;11.70;90.30
30889;DHT22;51092;50.874;7.024;2023-03-31T06:12:47;11.70;90.30
30889;DHT22;51092;50.874;7.024;2023-03-31T06:13:49;11.70;89.80
30889;DHT22;51092;50.874;7.024;2023-03-31T06:14:52;11.70;89.40
30889;DHT22;51092;50.874;7.024;2023-03-31T06:15:54;11.70;89.60
30889;DHT22;51092;50.874;7.024;2023-03-31T06:16:58;11.70;89.70
30889;DHT22;51092;50.874;7.024;2023-03-31T06:17:59;11.60;89.10
30889;DHT22;51092;50.874;7.024;2023-03-31T06:19:03;11.60;89.00
30889;DHT22;51092;50.874;7.024;2023-03-31T06:20:06;11.60;89.30
30889;DHT22;51092;50.874;7.024;2023-03-31T06:21:11;11.60;89.40
30889;DHT22;51092;50.874;7.024;2023-03-31T06:22:14;11.60;89.50
30889;DHT22;51092;50.874;7.024;2023-03-31T06:23:15;11.60;89.60
30889;DHT22;51092;50.874;7.024;2023-03-31T06:24:18;11.60;89.40
30889;DHT22;51092;50.874;7.024;2023-03-31T06:25:19;11.60;89.20
30889;DHT22;51092;50.874;7.024;2023-03-31T06:26:21;11.60;89.30
30889;DHT22;51092;50.874;7.024;2023-03-31T06:27:24;11.50;90.10
30889;DHT22;51092;50.874;7.024;2023-03-31T06:28:27;11.50;90.20
30889;DHT22;51092;50.874;7.024;2023-03-31T06:29:29;11.40;90.60
30889;DHT22;51092;50.874;7.024;2023-03-31T06:30:31;11.40;91.20
30889;DHT22;51092;50.874;7.024;2023-03-31T06:31:32;11.40;91.50
30889;DHT22;51092;50.874;7.024;2023-03-31T06:32:35;11.40;90.70
30889;DHT22;51092;50.874;7.024;2023-03-31T06:33:37;11.40;90.80
30889;DHT22;51092;50.874;7.024;2023-03-31T06:34:41;11.40;90.70
30889;DHT22;51092;50.874;7.024;2023-03-31T06:35:42;11.50;90.50
30889;DHT22;51092;50.874;7.024;2023-03-31T06:36:46;11.50;90.70
30889;DHT22;51092;50.874;7.024;2023-03-31T06:37:48;11.50;90.50
30889;DHT22;51092;50.874;7.024;2023-03-31T06:38:50;11.50;90.40
30889;DHT22;51092;50.874;7.024;2023-03-31T06:39:53;11.50;90.40
30889;DHT22;51092;50.874;7.024;2023-03-31T06:40:54;11.50;90.30
30889;DHT22;51092;50.874;7.024;2023-03-31T06:41:57;11.50;90.30
30889;DHT22;51092;50.874;7.024;2023-03-31T06:42:58;11.50;90.40
30889;DHT22;51092;50.874;7.024;2023-03-31T06:44:01;11.60;90.20
30889;DHT22;51092;50.874;7.024;2023-03-31T06:45:04;11.60;90.30
30889;DHT22;51092;50.874;7.024;2023-03-31T06:46:05;11.60;90.40
30889;DHT22;51092;50.874;7.024;2023-03-31T06:47:08;11.70;90.10
30889;DHT22;51092;50.874;7.024;2023-03-31T06:48:10;11.80;90.10
30889;DHT22;51092;50.874;7.024;2023-03-31T06:49:12;11.80;89.40
30889;DHT22;51092;50.874;7.024;2023-03-31T06:50:16;11.70;89.50
30889;DHT22;51092;50.874;7.024;2023-03-31T06:51:18;11.80;89.30
30889;DHT22;51092;50.874;7.024;2023-03-31T06:52:20;11.70;89.80
30889;DHT22;51092;50.874;7.024;2023-03-31T06:53:22;11.80;89.80
30889;DHT22;51092;50.874;7.024;2023-03-31T06:54:24;11.80;89.60
30889;DHT22;51092;50.874;7.024;2023-03-31T06:55:26;11.90;89.40
30889;DHT22;51092;50.874;7.024;2023-03-31T06:56:28;11.90;89.40
30889;DHT22;51092;50.874;7.024;2023-03-31T06:57:30;11.90;88.70
30889;DHT22;51092;50.874;7.024;2023-03-31T06:58:33;11.70;89.60
30889;DHT22;51092;50.874;7.024;2023-03-31T06:59:36;11.80;90.10